Aviation Digital Data Service (ADDS)

Output produced by METARs form (1729 UTC 03 June 2020)
found at http://www.aviationweather.gov/metar/data/
 
METAR text: ZGOW 031700Z 26002MPS CAVOK 27/26 Q1008 NOSIG
Conditions at: ZGOW (SHAN-TOU , CN) observed 1700 UTC 03 June 2020
Temperature: 27.0°C (81°F)
Dewpoint: 26.0°C (79°F) [RH = 94%]
Pressure (altimeter): 29.76 inches Hg (1008.0 mb)
Winds: from the W (260 degrees) at 5 MPH (4 knots; 2.1 m/s)
Visibility: 6 or more miles (10+ km)
Ceiling: ceiling and visibility are OK
Clouds: unknown
Weather: no significant weather observed at this time

METAR text: ZGOW 031600Z VRB01MPS CAVOK 27/26 Q1008 NOSIG
Conditions at: ZGOW (SHAN-TOU , CN) observed 1600 UTC 03 June 2020
Temperature: 27.0°C (81°F)
Dewpoint: 26.0°C (79°F) [RH = 94%]
Pressure (altimeter): 29.76 inches Hg (1008.0 mb)
Winds: variable direction winds at 2 MPH (2 knots; 1.0 m/s)
Visibility: 6 or more miles (10+ km)
Ceiling: ceiling and visibility are OK
Clouds: unknown
Weather: no significant weather observed at this time

METAR text: ZGOW 031500Z 20002MPS 170V230 CAVOK 27/26 Q1009 NOSIG
Conditions at: ZGOW (SHAN-TOU , CN) observed 1500 UTC 03 June 2020
Temperature: 27.0°C (81°F)
Dewpoint: 26.0°C (79°F) [RH = 94%]
Pressure (altimeter): 29.79 inches Hg (1009.0 mb)
Winds: from the SSW (200 degrees) at 5 MPH (4 knots; 2.1 m/s)
Visibility: 6 or more miles (10+ km)
Ceiling: ceiling and visibility are OK
Clouds: unknown
Weather: no significant weather observed at this time

METAR text: ZGOW 031400Z 23003MPS CAVOK 28/26 Q1009 NOSIG
Conditions at: ZGOW (SHAN-TOU , CN) observed 1400 UTC 03 June 2020
Temperature: 28.0°C (82°F)
Dewpoint: 26.0°C (79°F) [RH = 89%]
Pressure (altimeter): 29.79 inches Hg (1009.0 mb)
Winds: from the SW (230 degrees) at 7 MPH (6 knots; 3.1 m/s)
Visibility: 6 or more miles (10+ km)
Ceiling: ceiling and visibility are OK
Clouds: unknown
Weather: no significant weather observed at this time

METAR text: ZGOW 031300Z 20004MPS CAVOK 29/25 Q1008 NOSIG
Conditions at: ZGOW (SHAN-TOU , CN) observed 1300 UTC 03 June 2020
Temperature: 29.0°C (84°F)
Dewpoint: 25.0°C (77°F) [RH = 79%]
Pressure (altimeter): 29.76 inches Hg (1008.0 mb)
Winds: from the SSW (200 degrees) at 9 MPH (8 knots; 4.1 m/s)
Visibility: 6 or more miles (10+ km)
Ceiling: ceiling and visibility are OK
Clouds: unknown
Weather: no significant weather observed at this time

METAR text: ZGOW 031200Z 21004MPS CAVOK 30/24 Q1008 NOSIG
Conditions at: ZGOW (SHAN-TOU , CN) observed 1200 UTC 03 June 2020
Temperature: 30.0°C (86°F)
Dewpoint: 24.0°C (75°F) [RH = 70%]
Pressure (altimeter): 29.76 inches Hg (1008.0 mb)
Winds: from the SSW (210 degrees) at 9 MPH (8 knots; 4.1 m/s)
Visibility: 6 or more miles (10+ km)
Ceiling: ceiling and visibility are OK
Clouds: unknown
Weather: no significant weather observed at this time

METAR text: ZGOW 031100Z 22003MPS CAVOK 30/24 Q1007 NOSIG
Conditions at: ZGOW (SHAN-TOU , CN) observed 1100 UTC 03 June 2020
Temperature: 30.0°C (86°F)
Dewpoint: 24.0°C (75°F) [RH = 70%]
Pressure (altimeter): 29.73 inches Hg (1007.0 mb)
Winds: from the SW (220 degrees) at 7 MPH (6 knots; 3.1 m/s)
Visibility: 6 or more miles (10+ km)
Ceiling: ceiling and visibility are OK
Clouds: unknown
Weather: no significant weather observed at this time

METAR text: ZGOW 031000Z 23006MPS 9999 FEW030 32/22 Q1006 NOSIG
Conditions at: ZGOW (SHAN-TOU , CN) observed 1000 UTC 03 June 2020
Temperature: 32.0°C (90°F)
Dewpoint: 22.0°C (72°F) [RH = 56%]
Pressure (altimeter): 29.70 inches Hg (1006.0 mb)
Winds: from the SW (230 degrees) at 14 MPH (12 knots; 6.2 m/s)
Visibility: 6 or more miles (10+ km)
Ceiling: at least 12,000 feet AGL
Clouds: few clouds at 3000 feet AGL
Weather: no significant weather observed at this time

METAR text: ZGOW 030900Z 23006MPS 9999 SCT030 34/24 Q1006 NOSIG
Conditions at: ZGOW (SHAN-TOU , CN) observed 0900 UTC 03 June 2020
Temperature: 34.0°C (93°F)
Dewpoint: 24.0°C (75°F) [RH = 56%]
Pressure (altimeter): 29.70 inches Hg (1006.0 mb)
Winds: from the SW (230 degrees) at 14 MPH (12 knots; 6.2 m/s)
Visibility: 6 or more miles (10+ km)
Ceiling: at least 12,000 feet AGL
Clouds: scattered clouds at 3000 feet AGL
Weather: no significant weather observed at this time

METAR text: ZGOW 030800Z 23006MPS 200V260 9999 BKN030 34/24 Q1006 NOSIG
Conditions at: ZGOW (SHAN-TOU , CN) observed 0800 UTC 03 June 2020
Temperature: 34.0°C (93°F)
Dewpoint: 24.0°C (75°F) [RH = 56%]
Pressure (altimeter): 29.70 inches Hg (1006.0 mb)
Winds: from the SW (230 degrees) at 14 MPH (12 knots; 6.2 m/s)
Visibility: 6 or more miles (10+ km)
Ceiling: 3000 feet AGL
Clouds: broken clouds at 3000 feet AGL
Weather: no significant weather observed at this time

METAR text: ZGOW 030700Z 22006MPS 9999 FEW030TCU SCT030 BKN050 34/23 Q1006 NOSIG
Conditions at: ZGOW (SHAN-TOU , CN) observed 0700 UTC 03 June 2020
Temperature: 34.0°C (93°F)
Dewpoint: 23.0°C (73°F) [RH = 53%]
Pressure (altimeter): 29.70 inches Hg (1006.0 mb)
Winds: from the SW (220 degrees) at 14 MPH (12 knots; 6.2 m/s)
Visibility: 6 or more miles (10+ km)
Ceiling: 5000 feet AGL
Clouds: few clouds at 3000 feet AGL
scattered clouds at 3000 feet AGL
broken clouds at 5000 feet AGL
Weather: no significant weather observed at this time

METAR text: ZGOW 030600Z 22006MPS 9999 FEW030TCU SCT030 34/24 Q1007 NOSIG
Conditions at: ZGOW (SHAN-TOU , CN) observed 0600 UTC 03 June 2020
Temperature: 34.0°C (93°F)
Dewpoint: 24.0°C (75°F) [RH = 56%]
Pressure (altimeter): 29.73 inches Hg (1007.0 mb)
Winds: from the SW (220 degrees) at 14 MPH (12 knots; 6.2 m/s)
Visibility: 6 or more miles (10+ km)
Ceiling: at least 12,000 feet AGL
Clouds: few clouds at 3000 feet AGL
scattered clouds at 3000 feet AGL
Weather: no significant weather observed at this time

METAR text: ZGOW 030500Z 20006MPS 9999 FEW030TCU SCT030 33/24 Q1008 NOSIG
Conditions at: ZGOW (SHAN-TOU , CN) observed 0500 UTC 03 June 2020
Temperature: 33.0°C (91°F)
Dewpoint: 24.0°C (75°F) [RH = 59%]
Pressure (altimeter): 29.76 inches Hg (1008.0 mb)
Winds: from the SSW (200 degrees) at 14 MPH (12 knots; 6.2 m/s)
Visibility: 6 or more miles (10+ km)
Ceiling: at least 12,000 feet AGL
Clouds: few clouds at 3000 feet AGL
scattered clouds at 3000 feet AGL
Weather: no significant weather observed at this time

METAR text: ZGOW 030400Z 22004MPS 180V260 9999 FEW030TCU BKN030 33/24 Q1009 NOSIG
Conditions at: ZGOW (SHAN-TOU , CN) observed 0400 UTC 03 June 2020
Temperature: 33.0°C (91°F)
Dewpoint: 24.0°C (75°F) [RH = 59%]
Pressure (altimeter): 29.79 inches Hg (1009.0 mb)
Winds: from the SW (220 degrees) at 9 MPH (8 knots; 4.1 m/s)
Visibility: 6 or more miles (10+ km)
Ceiling: 3000 feet AGL
Clouds: few clouds at 3000 feet AGL
broken clouds at 3000 feet AGL
Weather: no significant weather observed at this time

METAR text: ZGOW 030300Z 21005MPS 180V250 9999 FEW030TCU SCT030 32/25 Q1009 BECMG TL0430 -TSRA
Conditions at: ZGOW (SHAN-TOU , CN) observed 0300 UTC 03 June 2020
Temperature: 32.0°C (90°F)
Dewpoint: 25.0°C (77°F) [RH = 67%]
Pressure (altimeter): 29.79 inches Hg (1009.0 mb)
Winds: from the SSW (210 degrees) at 12 MPH (10 knots; 5.1 m/s)
Visibility: 6 or more miles (10+ km)
Ceiling: at least 12,000 feet AGL
Clouds: few clouds at 3000 feet AGL
scattered clouds at 3000 feet AGL
Weather: no significant weather observed at this time

METAR text: ZGOW 030200Z 22005MPS 180V250 9999 FEW026TCU SCT026 32/25 Q1010 BECMG TL0330 -TSRA
Conditions at: ZGOW (SHAN-TOU , CN) observed 0200 UTC 03 June 2020
Temperature: 32.0°C (90°F)
Dewpoint: 25.0°C (77°F) [RH = 67%]
Pressure (altimeter): 29.82 inches Hg (1010.0 mb)
Winds: from the SW (220 degrees) at 12 MPH (10 knots; 5.1 m/s)
Visibility: 6 or more miles (10+ km)
Ceiling: at least 12,000 feet AGL
Clouds: few clouds at 2600 feet AGL
scattered clouds at 2600 feet AGL
Weather: no significant weather observed at this time

METAR text: ZGOW 030100Z 21003MPS 9999 FEW015 FEW026TCU 30/26 Q1010 NOSIG
Conditions at: ZGOW (SHAN-TOU , CN) observed 0100 UTC 03 June 2020
Temperature: 30.0°C (86°F)
Dewpoint: 26.0°C (79°F) [RH = 79%]
Pressure (altimeter): 29.82 inches Hg (1010.0 mb)
Winds: from the SSW (210 degrees) at 7 MPH (6 knots; 3.1 m/s)
Visibility: 6 or more miles (10+ km)
Ceiling: at least 12,000 feet AGL
Clouds: few clouds at 1500 feet AGL
few clouds at 2600 feet AGL
Weather: no significant weather observed at this time

METAR text: ZGOW 030000Z 19003MPS 9999 FEW015 FEW026CB SCT040 29/26 Q1010 NOSIG
Conditions at: ZGOW (SHAN-TOU , CN) observed 0000 UTC 03 June 2020
Temperature: 29.0°C (84°F)
Dewpoint: 26.0°C (79°F) [RH = 84%]
Pressure (altimeter): 29.82 inches Hg (1010.0 mb)
Winds: from the S (190 degrees) at 7 MPH (6 knots; 3.1 m/s)
Visibility: 6 or more miles (10+ km)
Ceiling: at least 12,000 feet AGL
Clouds: few clouds at 1500 feet AGL
few clouds at 2600 feet AGL
scattered clouds at 4000 feet AGL
Weather: no significant weather observed at this time

METAR text: ZGOW 022300Z VRB01MPS 9999 FEW020 FEW033CB SCT050 28/27 Q1010 NOSIG
Conditions at: ZGOW (SHAN-TOU , CN) observed 2300 UTC 02 June 2020
Temperature: 28.0°C (82°F)
Dewpoint: 27.0°C (81°F) [RH = 94%]
Pressure (altimeter): 29.82 inches Hg (1010.0 mb)
Winds: variable direction winds at 2 MPH (2 knots; 1.0 m/s)
Visibility: 6 or more miles (10+ km)
Ceiling: at least 12,000 feet AGL
Clouds: few clouds at 2000 feet AGL
few clouds at 3300 feet AGL
scattered clouds at 5000 feet AGL
Weather: no significant weather observed at this time

METAR text: ZGOW 022200Z 34001MPS 9999 FEW023TCU FEW023 SCT036 26/26 Q1009 NOSIG
Conditions at: ZGOW (SHAN-TOU , CN) observed 2200 UTC 02 June 2020
Temperature: 26.0°C (79°F)
Dewpoint: 26.0°C (79°F) [RH = 100%]
Pressure (altimeter): 29.79 inches Hg (1009.0 mb)
Winds: from the NNW (340 degrees) at 2 MPH (2 knots; 1.0 m/s)
Visibility: 6 or more miles (10+ km)
Ceiling: at least 12,000 feet AGL
Clouds: few clouds at 2300 feet AGL
few clouds at 2300 feet AGL
scattered clouds at 3600 feet AGL
Weather: no significant weather observed at this time

METAR text: ZGOW 022100Z 36001MPS 9999 FEW015 FEW030TCU BKN050 26/26 Q1008 NOSIG
Conditions at: ZGOW (SHAN-TOU , CN) observed 2100 UTC 02 June 2020
Temperature: 26.0°C (79°F)
Dewpoint: 26.0°C (79°F) [RH = 100%]
Pressure (altimeter): 29.76 inches Hg (1008.0 mb)
Winds: from the N (360 degrees) at 2 MPH (2 knots; 1.0 m/s)
Visibility: 6 or more miles (10+ km)
Ceiling: 5000 feet AGL
Clouds: few clouds at 1500 feet AGL
few clouds at 3000 feet AGL
broken clouds at 5000 feet AGL
Weather: no significant weather observed at this time

METAR text: ZGOW 022000Z VRB01MPS 9999 BKN026 26/26 Q1008 NOSIG
Conditions at: ZGOW (SHAN-TOU , CN) observed 2000 UTC 02 June 2020
Temperature: 26.0°C (79°F)
Dewpoint: 26.0°C (79°F) [RH = 100%]
Pressure (altimeter): 29.76 inches Hg (1008.0 mb)
Winds: variable direction winds at 2 MPH (2 knots; 1.0 m/s)
Visibility: 6 or more miles (10+ km)
Ceiling: 2600 feet AGL
Clouds: broken clouds at 2600 feet AGL
Weather: no significant weather observed at this time

METAR text: ZGOW 021900Z VRB01MPS 9999 BKN030 27/26 Q1008 NOSIG
Conditions at: ZGOW (SHAN-TOU , CN) observed 1900 UTC 02 June 2020
Temperature: 27.0°C (81°F)
Dewpoint: 26.0°C (79°F) [RH = 94%]
Pressure (altimeter): 29.76 inches Hg (1008.0 mb)
Winds: variable direction winds at 2 MPH (2 knots; 1.0 m/s)
Visibility: 6 or more miles (10+ km)
Ceiling: 3000 feet AGL
Clouds: broken clouds at 3000 feet AGL
Weather: no significant weather observed at this time

METAR text: ZGOW 021800Z 00000MPS 9999 SCT033 26/26 Q1008 NOSIG
Conditions at: ZGOW (SHAN-TOU , CN) observed 1800 UTC 02 June 2020
Temperature: 26.0°C (79°F)
Dewpoint: 26.0°C (79°F) [RH = 100%]
Pressure (altimeter): 29.76 inches Hg (1008.0 mb)
Winds: calm
Visibility: 6 or more miles (10+ km)
Ceiling: at least 12,000 feet AGL
Clouds: scattered clouds at 3300 feet AGL
Weather: no significant weather observed at this time

METAR text: ZGOW 021700Z VRB01MPS 9999 SCT033 27/26 Q1009 NOSIG
Conditions at: ZGOW (SHAN-TOU , CN) observed 1700 UTC 02 June 2020
Temperature: 27.0°C (81°F)
Dewpoint: 26.0°C (79°F) [RH = 94%]
Pressure (altimeter): 29.79 inches Hg (1009.0 mb)
Winds: variable direction winds at 2 MPH (2 knots; 1.0 m/s)
Visibility: 6 or more miles (10+ km)
Ceiling: at least 12,000 feet AGL
Clouds: scattered clouds at 3300 feet AGL
Weather: no significant weather observed at this time

METAR text: ZGOW 021600Z VRB01MPS 9999 FEW033 27/26 Q1009 NOSIG
Conditions at: ZGOW (SHAN-TOU , CN) observed 1600 UTC 02 June 2020
Temperature: 27.0°C (81°F)
Dewpoint: 26.0°C (79°F) [RH = 94%]
Pressure (altimeter): 29.79 inches Hg (1009.0 mb)
Winds: variable direction winds at 2 MPH (2 knots; 1.0 m/s)
Visibility: 6 or more miles (10+ km)
Ceiling: at least 12,000 feet AGL
Clouds: few clouds at 3300 feet AGL
Weather: no significant weather observed at this time

METAR text: ZGOW 021500Z 22002MPS 9999 FEW033 28/26 Q1010 NOSIG
Conditions at: ZGOW (SHAN-TOU , CN) observed 1500 UTC 02 June 2020
Temperature: 28.0°C (82°F)
Dewpoint: 26.0°C (79°F) [RH = 89%]
Pressure (altimeter): 29.82 inches Hg (1010.0 mb)
Winds: from the SW (220 degrees) at 5 MPH (4 knots; 2.1 m/s)
Visibility: 6 or more miles (10+ km)
Ceiling: at least 12,000 feet AGL
Clouds: few clouds at 3300 feet AGL
Weather: no significant weather observed at this time

METAR text: ZGOW 021400Z 21003MPS CAVOK 28/26 Q1009 NOSIG
Conditions at: ZGOW (SHAN-TOU , CN) observed 1400 UTC 02 June 2020
Temperature: 28.0°C (82°F)
Dewpoint: 26.0°C (79°F) [RH = 89%]
Pressure (altimeter): 29.79 inches Hg (1009.0 mb)
Winds: from the SSW (210 degrees) at 7 MPH (6 knots; 3.1 m/s)
Visibility: 6 or more miles (10+ km)
Ceiling: ceiling and visibility are OK
Clouds: unknown
Weather: no significant weather observed at this time

METAR text: ZGOW 021300Z 20004MPS CAVOK 29/25 Q1009 NOSIG
Conditions at: ZGOW (SHAN-TOU , CN) observed 1300 UTC 02 June 2020
Temperature: 29.0°C (84°F)
Dewpoint: 25.0°C (77°F) [RH = 79%]
Pressure (altimeter): 29.79 inches Hg (1009.0 mb)
Winds: from the SSW (200 degrees) at 9 MPH (8 knots; 4.1 m/s)
Visibility: 6 or more miles (10+ km)
Ceiling: ceiling and visibility are OK
Clouds: unknown
Weather: no significant weather observed at this time

METAR text: ZGOW 021200Z 20004MPS CAVOK 29/25 Q1008 NOSIG
Conditions at: ZGOW (SHAN-TOU , CN) observed 1200 UTC 02 June 2020
Temperature: 29.0°C (84°F)
Dewpoint: 25.0°C (77°F) [RH = 79%]
Pressure (altimeter): 29.76 inches Hg (1008.0 mb)
Winds: from the SSW (200 degrees) at 9 MPH (8 knots; 4.1 m/s)
Visibility: 6 or more miles (10+ km)
Ceiling: ceiling and visibility are OK
Clouds: unknown
Weather: no significant weather observed at this time

METAR text: ZGOW 021100Z 21004MPS 9999 FEW026 30/24 Q1008 NOSIG
Conditions at: ZGOW (SHAN-TOU , CN) observed 1100 UTC 02 June 2020
Temperature: 30.0°C (86°F)
Dewpoint: 24.0°C (75°F) [RH = 70%]
Pressure (altimeter): 29.76 inches Hg (1008.0 mb)
Winds: from the SSW (210 degrees) at 9 MPH (8 knots; 4.1 m/s)
Visibility: 6 or more miles (10+ km)
Ceiling: at least 12,000 feet AGL
Clouds: few clouds at 2600 feet AGL
Weather: no significant weather observed at this time

METAR text: ZGOW 021000Z 20005MPS 9999 FEW026 31/24 Q1007 NOSIG
Conditions at: ZGOW (SHAN-TOU , CN) observed 1000 UTC 02 June 2020
Temperature: 31.0°C (88°F)
Dewpoint: 24.0°C (75°F) [RH = 66%]
Pressure (altimeter): 29.73 inches Hg (1007.0 mb)
Winds: from the SSW (200 degrees) at 12 MPH (10 knots; 5.1 m/s)
Visibility: 6 or more miles (10+ km)
Ceiling: at least 12,000 feet AGL
Clouds: few clouds at 2600 feet AGL
Weather: no significant weather observed at this time

METAR text: ZGOW 020900Z 22006MPS 9999 FEW026 32/24 Q1007 NOSIG
Conditions at: ZGOW (SHAN-TOU , CN) observed 0900 UTC 02 June 2020
Temperature: 32.0°C (90°F)
Dewpoint: 24.0°C (75°F) [RH = 63%]
Pressure (altimeter): 29.73 inches Hg (1007.0 mb)
Winds: from the SW (220 degrees) at 14 MPH (12 knots; 6.2 m/s)
Visibility: 6 or more miles (10+ km)
Ceiling: at least 12,000 feet AGL
Clouds: few clouds at 2600 feet AGL
Weather: no significant weather observed at this time

METAR text: ZGOW 020800Z 20006MPS 9999 FEW026 FEW033TCU 33/24 Q1007 NOSIG
Conditions at: ZGOW (SHAN-TOU , CN) observed 0800 UTC 02 June 2020
Temperature: 33.0°C (91°F)
Dewpoint: 24.0°C (75°F) [RH = 59%]
Pressure (altimeter): 29.73 inches Hg (1007.0 mb)
Winds: from the SSW (200 degrees) at 14 MPH (12 knots; 6.2 m/s)
Visibility: 6 or more miles (10+ km)
Ceiling: at least 12,000 feet AGL
Clouds: few clouds at 2600 feet AGL
few clouds at 3300 feet AGL
Weather: no significant weather observed at this time

METAR text: ZGOW 020700Z 20004MPS 150V250 9999 FEW033CB SCT033 32/25 Q1008 NOSIG
Conditions at: ZGOW (SHAN-TOU , CN) observed 0700 UTC 02 June 2020
Temperature: 32.0°C (90°F)
Dewpoint: 25.0°C (77°F) [RH = 67%]
Pressure (altimeter): 29.76 inches Hg (1008.0 mb)
Winds: from the SSW (200 degrees) at 9 MPH (8 knots; 4.1 m/s)
Visibility: 6 or more miles (10+ km)
Ceiling: at least 12,000 feet AGL
Clouds: few clouds at 3300 feet AGL
scattered clouds at 3300 feet AGL
Weather: no significant weather observed at this time

METAR text: ZGOW 020600Z 22004MPS 9999 FEW026CB SCT026 32/26 Q1008 RESHRA NOSIG
Conditions at: ZGOW (SHAN-TOU , CN) observed 0600 UTC 02 June 2020
Temperature: 32.0°C (90°F)
Dewpoint: 26.0°C (79°F) [RH = 71%]
Pressure (altimeter): 29.76 inches Hg (1008.0 mb)
Winds: from the SW (220 degrees) at 9 MPH (8 knots; 4.1 m/s)
Visibility: 6 or more miles (10+ km)
Ceiling: at least 12,000 feet AGL
Clouds: few clouds at 2600 feet AGL
scattered clouds at 2600 feet AGL
Weather: no significant weather observed at this time

Forecast for: ZGOW (SHAN-TOU , CN)
Text: TAF ZGOW 031503Z 0318/0418 21003MPS 6000 FEW020 SCT040 TX34/0406Z TN26/0322Z
Forecast period: 1800 UTC 03 June 2020 to 1800 UTC 04 June 2020
Forecast type: FROM: standard forecast or significant change
Winds: from the SSW (210 degrees) at 7 MPH (6 knots; 3.1 m/s)
Visibility: 4 miles (6 km)
Ceiling: at least 12,000 feet AGL
Clouds: few clouds at 2000 feet AGL
scattered clouds at 4000 feet AGL
Weather: no significant weather forecast for this period
Text: TEMPO 0404/0410 VRB08G14MPS 2100 TSRA SCT012 SCT026CB BKN033
Forecast period: 0400 to 1000 UTC 04 June 2020
Forecast type: TEMPORARY: The following changes expected for less than half the time period
Winds: variable direction winds at 18 MPH (16 knots; 8.2 m/s)
gusting to 31 MPH (27 knots; 13.9 m/s)
Visibility: 1.30 miles (2.09 km)
Ceiling: 3300 feet AGL
Clouds: scattered clouds at 1200 feet AGL
scattered clouds at 2600 feet AGL
broken clouds at 3300 feet AGL
Weather: TSRA  (rain associated with thunderstorm(s))